sensor_id;sensor_type;location;lat;lon;timestamp;P1;durP1;ratioP1;P2;durP2;ratioP2
21820;SDS011;11073;48.586;12.066;2022-10-16T00:01:49;6.97;;;2.00;;
21820;SDS011;11073;48.586;12.066;2022-10-16T00:04:17;2.63;;;2.00;;
21820;SDS011;11073;48.586;12.066;2022-10-16T00:06:46;3.53;;;1.52;;
21820;SDS011;11073;48.586;12.066;2022-10-16T00:09:15;6.88;;;2.05;;
21820;SDS011;11073;48.586;12.066;2022-10-16T00:11:44;2.85;;;1.50;;
21820;SDS011;11073;48.586;12.066;2022-10-16T00:14:13;2.40;;;1.67;;
21820;SDS011;11073;48.586;12.066;2022-10-16T00:16:44;2.95;;;1.98;;
21820;SDS011;11073;48.586;12.066;2022-10-16T00:19:14;3.53;;;2.45;;
21820;SDS011;11073;48.586;12.066;2022-10-16T00:21:43;4.82;;;2.50;;
21820;SDS011;11073;48.586;12.066;2022-10-16T00:24:11;2.67;;;2.10;;
21820;SDS011;11073;48.586;12.066;2022-10-16T00:26:40;6.22;;;2.03;;
21820;SDS011;11073;48.586;12.066;2022-10-16T00:29:09;5.22;;;2.00;;
21820;SDS011;11073;48.586;12.066;2022-10-16T00:31:38;4.50;;;1.85;;
21820;SDS011;11073;48.586;12.066;2022-10-16T00:34:07;2.60;;;2.00;;
21820;SDS011;11073;48.586;12.066;2022-10-16T00:36:37;5.85;;;2.50;;
21820;SDS011;11073;48.586;12.066;2022-10-16T00:39:06;5.55;;;1.80;;
21820;SDS011;11073;48.586;12.066;2022-10-16T00:41:35;3.75;;;1.80;;
21820;SDS011;11073;48.586;12.066;2022-10-16T00:44:41;1.90;;;1.40;;
21820;SDS011;11073;48.586;12.066;2022-10-16T00:47:18;2.10;;;1.80;;
21820;SDS011;11073;48.586;12.066;2022-10-16T00:49:51;3.65;;;2.50;;
21820;SDS011;11073;48.586;12.066;2022-10-16T00:52:25;6.82;;;1.90;;
21820;SDS011;11073;48.586;12.066;2022-10-16T00:54:54;2.67;;;1.60;;
21820;SDS011;11073;48.586;12.066;2022-10-16T00:57:24;3.28;;;1.80;;
21820;SDS011;11073;48.586;12.066;2022-10-16T00:59:54;3.17;;;1.73;;
21820;SDS011;11073;48.586;12.066;2022-10-16T01:02:23;2.55;;;1.65;;
21820;SDS011;11073;48.586;12.066;2022-10-16T01:04:52;3.63;;;1.60;;
21820;SDS011;11073;48.586;12.066;2022-10-16T01:07:30;3.17;;;1.65;;
21820;SDS011;11073;48.586;12.066;2022-10-16T01:10:10;2.78;;;1.50;;
21820;SDS011;11073;48.586;12.066;2022-10-16T01:12:46;1.23;;;1.13;;
21820;SDS011;11073;48.586;12.066;2022-10-16T01:15:20;5.60;;;2.30;;
21820;SDS011;11073;48.586;12.066;2022-10-16T01:17:57;3.83;;;2.10;;
21820;SDS011;11073;48.586;12.066;2022-10-16T01:20:32;2.97;;;1.88;;
21820;SDS011;11073;48.586;12.066;2022-10-16T01:23:14;2.35;;;1.60;;
21820;SDS011;11073;48.586;12.066;2022-10-16T01:25:53;3.17;;;1.40;;
21820;SDS011;11073;48.586;12.066;2022-10-16T01:28:41;4.63;;;1.50;;
21820;SDS011;11073;48.586;12.066;2022-10-16T01:31:13;5.57;;;2.92;;
21820;SDS011;11073;48.586;12.066;2022-10-16T01:33:47;3.33;;;2.38;;
21820;SDS011;11073;48.586;12.066;2022-10-16T01:36:23;2.50;;;2.22;;
21820;SDS011;11073;48.586;12.066;2022-10-16T01:38:56;3.95;;;1.90;;
21820;SDS011;11073;48.586;12.066;2022-10-16T01:41:30;3.63;;;1.95;;
21820;SDS011;11073;48.586;12.066;2022-10-16T01:44:03;4.25;;;2.00;;
21820;SDS011;11073;48.586;12.066;2022-10-16T01:46:37;5.22;;;1.75;;
21820;SDS011;11073;48.586;12.066;2022-10-16T01:49:09;4.50;;;1.70;;
21820;SDS011;11073;48.586;12.066;2022-10-16T01:51:40;4.25;;;1.67;;
21820;SDS011;11073;48.586;12.066;2022-10-16T01:54:12;2.78;;;1.48;;
21820;SDS011;11073;48.586;12.066;2022-10-16T01:56:44;4.60;;;1.95;;
21820;SDS011;11073;48.586;12.066;2022-10-16T01:59:16;3.38;;;1.70;;
21820;SDS011;11073;48.586;12.066;2022-10-16T02:01:48;2.22;;;1.30;;
21820;SDS011;11073;48.586;12.066;2022-10-16T02:04:23;3.67;;;1.55;;
21820;SDS011;11073;48.586;12.066;2022-10-16T02:06:56;1.98;;;1.40;;
21820;SDS011;11073;48.586;12.066;2022-10-16T02:09:25;1.92;;;1.50;;
21820;SDS011;11073;48.586;12.066;2022-10-16T02:11:54;2.60;;;1.60;;
21820;SDS011;11073;48.586;12.066;2022-10-16T02:14:30;4.55;;;1.35;;
21820;SDS011;11073;48.586;12.066;2022-10-16T02:17:00;2.15;;;1.30;;
21820;SDS011;11073;48.586;12.066;2022-10-16T02:19:28;2.50;;;1.38;;
21820;SDS011;11073;48.586;12.066;2022-10-16T02:21:58;4.45;;;1.75;;
21820;SDS011;11073;48.586;12.066;2022-10-16T02:24:32;5.68;;;1.60;;
21820;SDS011;11073;48.586;12.066;2022-10-16T02:27:06;2.85;;;1.40;;
21820;SDS011;11073;48.586;12.066;2022-10-16T02:29:42;3.22;;;1.48;;
21820;SDS011;11073;48.586;12.066;2022-10-16T02:32:16;1.90;;;1.40;;
21820;SDS011;11073;48.586;12.066;2022-10-16T02:34:49;2.75;;;1.33;;
21820;SDS011;11073;48.586;12.066;2022-10-16T02:37:19;4.80;;;1.80;;
21820;SDS011;11073;48.586;12.066;2022-10-16T02:39:48;1.98;;;1.38;;
21820;SDS011;11073;48.586;12.066;2022-10-16T02:42:18;4.35;;;1.60;;
21820;SDS011;11073;48.586;12.066;2022-10-16T02:44:48;2.67;;;1.42;;
21820;SDS011;11073;48.586;12.066;2022-10-16T02:47:17;5.35;;;1.73;;
21820;SDS011;11073;48.586;12.066;2022-10-16T02:49:46;3.15;;;2.00;;
21820;SDS011;11073;48.586;12.066;2022-10-16T02:52:15;4.32;;;1.67;;
21820;SDS011;11073;48.586;12.066;2022-10-16T02:54:44;4.15;;;2.10;;
21820;SDS011;11073;48.586;12.066;2022-10-16T02:57:12;3.53;;;1.63;;
21820;SDS011;11073;48.586;12.066;2022-10-16T02:59:41;4.43;;;1.92;;
21820;SDS011;11073;48.586;12.066;2022-10-16T03:02:11;2.08;;;1.70;;
21820;SDS011;11073;48.586;12.066;2022-10-16T03:04:40;3.25;;;1.73;;
21820;SDS011;11073;48.586;12.066;2022-10-16T03:07:09;10.57;;;6.95;;
21820;SDS011;11073;48.586;12.066;2022-10-16T03:09:38;2.63;;;2.15;;
21820;SDS011;11073;48.586;12.066;2022-10-16T03:12:07;3.40;;;2.10;;
21820;SDS011;11073;48.586;12.066;2022-10-16T03:14:35;1.95;;;1.70;;
21820;SDS011;11073;48.586;12.066;2022-10-16T03:17:04;3.30;;;1.55;;
21820;SDS011;11073;48.586;12.066;2022-10-16T03:19:34;2.28;;;1.90;;
21820;SDS011;11073;48.586;12.066;2022-10-16T03:22:03;3.42;;;2.15;;
21820;SDS011;11073;48.586;12.066;2022-10-16T03:24:32;3.03;;;1.80;;
21820;SDS011;11073;48.586;12.066;2022-10-16T03:27:01;3.45;;;2.25;;
21820;SDS011;11073;48.586;12.066;2022-10-16T03:29:30;4.53;;;1.85;;
21820;SDS011;11073;48.586;12.066;2022-10-16T03:32:00;3.33;;;1.77;;
21820;SDS011;11073;48.586;12.066;2022-10-16T03:34:29;2.88;;;1.67;;
21820;SDS011;11073;48.586;12.066;2022-10-16T03:36:59;3.45;;;1.50;;
21820;SDS011;11073;48.586;12.066;2022-10-16T03:39:28;4.00;;;1.73;;
21820;SDS011;11073;48.586;12.066;2022-10-16T03:41:57;3.13;;;1.73;;
21820;SDS011;11073;48.586;12.066;2022-10-16T03:44:25;4.88;;;1.90;;
21820;SDS011;11073;48.586;12.066;2022-10-16T03:46:54;2.72;;;1.70;;
21820;SDS011;11073;48.586;12.066;2022-10-16T03:49:23;3.97;;;2.08;;
21820;SDS011;11073;48.586;12.066;2022-10-16T03:51:52;6.57;;;1.83;;
21820;SDS011;11073;48.586;12.066;2022-10-16T03:54:22;4.45;;;2.00;;
21820;SDS011;11073;48.586;12.066;2022-10-16T03:56:51;4.47;;;1.50;;
21820;SDS011;11073;48.586;12.066;2022-10-16T03:59:19;4.60;;;1.40;;
21820;SDS011;11073;48.586;12.066;2022-10-16T04:01:48;3.83;;;1.98;;
21820;SDS011;11073;48.586;12.066;2022-10-16T04:04:17;5.28;;;1.45;;
21820;SDS011;11073;48.586;12.066;2022-10-16T04:06:46;2.55;;;1.48;;
21820;SDS011;11073;48.586;12.066;2022-10-16T04:09:15;3.90;;;1.70;;
21820;SDS011;11073;48.586;12.066;2022-10-16T04:11:45;2.20;;;1.63;;
21820;SDS011;11073;48.586;12.066;2022-10-16T04:14:14;3.67;;;1.40;;
21820;SDS011;11073;48.586;12.066;2022-10-16T04:16:42;3.83;;;1.50;;
21820;SDS011;11073;48.586;12.066;2022-10-16T04:19:11;2.40;;;1.73;;
21820;SDS011;11073;48.586;12.066;2022-10-16T04:21:40;3.10;;;1.40;;
21820;SDS011;11073;48.586;12.066;2022-10-16T04:24:09;3.38;;;1.65;;
21820;SDS011;11073;48.586;12.066;2022-10-16T04:26:38;3.80;;;2.22;;
21820;SDS011;11073;48.586;12.066;2022-10-16T04:29:08;2.50;;;1.70;;
21820;SDS011;11073;48.586;12.066;2022-10-16T04:31:37;6.80;;;1.88;;
21820;SDS011;11073;48.586;12.066;2022-10-16T04:34:06;2.75;;;1.60;;
21820;SDS011;11073;48.586;12.066;2022-10-16T04:36:34;3.63;;;1.70;;
21820;SDS011;11073;48.586;12.066;2022-10-16T04:39:03;3.63;;;1.77;;
21820;SDS011;11073;48.586;12.066;2022-10-16T04:41:32;6.43;;;2.25;;
21820;SDS011;11073;48.586;12.066;2022-10-16T04:44:00;4.47;;;1.80;;
21820;SDS011;11073;48.586;12.066;2022-10-16T04:46:30;4.28;;;1.50;;
21820;SDS011;11073;48.586;12.066;2022-10-16T04:48:59;1.85;;;1.50;;
21820;SDS011;11073;48.586;12.066;2022-10-16T04:51:28;4.50;;;1.88;;
21820;SDS011;11073;48.586;12.066;2022-10-16T04:53:56;3.70;;;1.50;;
21820;SDS011;11073;48.586;12.066;2022-10-16T04:56:25;2.08;;;1.55;;
21820;SDS011;11073;48.586;12.066;2022-10-16T04:58:54;1.65;;;1.30;;
21820;SDS011;11073;48.586;12.066;2022-10-16T05:01:23;2.00;;;1.63;;
21820;SDS011;11073;48.586;12.066;2022-10-16T05:03:52;2.38;;;2.17;;
21820;SDS011;11073;48.586;12.066;2022-10-16T05:06:21;4.72;;;2.28;;
21820;SDS011;11073;48.586;12.066;2022-10-16T05:08:49;5.07;;;2.47;;
21820;SDS011;11073;48.586;12.066;2022-10-16T05:11:18;4.45;;;1.80;;
21820;SDS011;11073;48.586;12.066;2022-10-16T05:13:47;2.42;;;1.70;;
21820;SDS011;11073;48.586;12.066;2022-10-16T05:16:19;5.88;;;1.77;;
21820;SDS011;11073;48.586;12.066;2022-10-16T05:18:48;4.63;;;2.17;;
21820;SDS011;11073;48.586;12.066;2022-10-16T05:21:23;4.03;;;1.52;;
21820;SDS011;11073;48.586;12.066;2022-10-16T05:23:52;4.40;;;2.08;;
21820;SDS011;11073;48.586;12.066;2022-10-16T05:26:22;7.10;;;2.20;;
21820;SDS011;11073;48.586;12.066;2022-10-16T05:28:51;3.20;;;2.00;;
21820;SDS011;11073;48.586;12.066;2022-10-16T05:31:19;2.65;;;1.80;;
21820;SDS011;11073;48.586;12.066;2022-10-16T05:33:48;5.43;;;2.20;;
21820;SDS011;11073;48.586;12.066;2022-10-16T05:36:17;3.05;;;1.85;;
21820;SDS011;11073;48.586;12.066;2022-10-16T05:38:50;3.63;;;1.77;;
21820;SDS011;11073;48.586;12.066;2022-10-16T05:41:19;4.07;;;1.67;;
21820;SDS011;11073;48.586;12.066;2022-10-16T05:43:48;2.47;;;2.28;;
21820;SDS011;11073;48.586;12.066;2022-10-16T05:46:17;7.22;;;2.63;;
21820;SDS011;11073;48.586;12.066;2022-10-16T05:48:46;8.23;;;2.38;;
21820;SDS011;11073;48.586;12.066;2022-10-16T05:51:14;4.10;;;2.22;;
21820;SDS011;11073;48.586;12.066;2022-10-16T05:53:43;6.25;;;2.53;;
21820;SDS011;11073;48.586;12.066;2022-10-16T05:56:13;2.53;;;2.15;;
21820;SDS011;11073;48.586;12.066;2022-10-16T05:58:42;3.20;;;2.00;;
21820;SDS011;11073;48.586;12.066;2022-10-16T06:01:12;2.58;;;2.33;;
21820;SDS011;11073;48.586;12.066;2022-10-16T06:03:43;5.90;;;2.00;;
21820;SDS011;11073;48.586;12.066;2022-10-16T06:06:12;3.42;;;1.80;;
21820;SDS011;11073;48.586;12.066;2022-10-16T06:08:42;3.65;;;1.90;;
21820;SDS011;11073;48.586;12.066;2022-10-16T06:11:15;3.83;;;2.00;;
21820;SDS011;11073;48.586;12.066;2022-10-16T06:13:44;5.65;;;1.83;;
21820;SDS011;11073;48.586;12.066;2022-10-16T06:16:14;3.35;;;2.13;;
21820;SDS011;11073;48.586;12.066;2022-10-16T06:18:44;6.43;;;4.05;;
21820;SDS011;11073;48.586;12.066;2022-10-16T06:21:14;6.93;;;4.38;;
21820;SDS011;11073;48.586;12.066;2022-10-16T06:23:45;7.75;;;5.43;;
21820;SDS011;11073;48.586;12.066;2022-10-16T06:26:17;4.18;;;2.45;;
21820;SDS011;11073;48.586;12.066;2022-10-16T06:28:48;4.07;;;2.47;;
21820;SDS011;11073;48.586;12.066;2022-10-16T06:31:17;4.43;;;2.45;;
21820;SDS011;11073;48.586;12.066;2022-10-16T06:33:49;4.80;;;3.03;;
21820;SDS011;11073;48.586;12.066;2022-10-16T06:36:19;5.18;;;2.63;;
21820;SDS011;11073;48.586;12.066;2022-10-16T06:38:48;5.45;;;2.65;;
21820;SDS011;11073;48.586;12.066;2022-10-16T06:41:19;2.75;;;2.53;;
21820;SDS011;11073;48.586;12.066;2022-10-16T06:43:50;3.65;;;2.10;;
21820;SDS011;11073;48.586;12.066;2022-10-16T06:46:20;2.80;;;2.22;;
21820;SDS011;11073;48.586;12.066;2022-10-16T06:48:50;5.90;;;3.05;;
21820;SDS011;11073;48.586;12.066;2022-10-16T06:51:19;5.95;;;3.15;;
21820;SDS011;11073;48.586;12.066;2022-10-16T06:53:49;4.50;;;3.08;;
21820;SDS011;11073;48.586;12.066;2022-10-16T06:56:36;6.05;;;3.63;;
21820;SDS011;11073;48.586;12.066;2022-10-16T06:59:05;6.22;;;2.92;;
21820;SDS011;11073;48.586;12.066;2022-10-16T07:01:33;5.47;;;2.25;;
21820;SDS011;11073;48.586;12.066;2022-10-16T07:04:02;5.38;;;3.70;;
21820;SDS011;11073;48.586;12.066;2022-10-16T07:06:32;4.95;;;2.90;;
21820;SDS011;11073;48.586;12.066;2022-10-16T07:09:03;10.38;;;3.63;;
21820;SDS011;11073;48.586;12.066;2022-10-16T07:11:36;4.57;;;3.92;;
21820;SDS011;11073;48.586;12.066;2022-10-16T07:14:08;6.15;;;4.15;;
21820;SDS011;11073;48.586;12.066;2022-10-16T07:16:44;8.35;;;4.45;;
21820;SDS011;11073;48.586;12.066;2022-10-16T07:19:14;7.13;;;3.38;;
21820;SDS011;11073;48.586;12.066;2022-10-16T07:21:44;8.02;;;3.63;;
21820;SDS011;11073;48.586;12.066;2022-10-16T07:24:13;6.70;;;2.60;;
21820;SDS011;11073;48.586;12.066;2022-10-16T07:26:45;7.30;;;2.90;;
21820;SDS011;11073;48.586;12.066;2022-10-16T07:29:15;5.50;;;3.08;;
21820;SDS011;11073;48.586;12.066;2022-10-16T07:31:45;8.68;;;3.20;;
21820;SDS011;11073;48.586;12.066;2022-10-16T07:34:15;5.80;;;2.75;;
21820;SDS011;11073;48.586;12.066;2022-10-16T07:36:47;4.70;;;3.40;;
21820;SDS011;11073;48.586;12.066;2022-10-16T07:39:16;4.50;;;2.83;;
21820;SDS011;11073;48.586;12.066;2022-10-16T07:41:47;5.85;;;3.15;;
21820;SDS011;11073;48.586;12.066;2022-10-16T07:44:15;3.88;;;3.08;;
21820;SDS011;11073;48.586;12.066;2022-10-16T07:46:44;5.47;;;3.00;;
21820;SDS011;11073;48.586;12.066;2022-10-16T07:49:12;11.65;;;3.40;;
21820;SDS011;11073;48.586;12.066;2022-10-16T07:51:41;5.60;;;3.20;;
21820;SDS011;11073;48.586;12.066;2022-10-16T07:54:10;4.78;;;3.10;;
21820;SDS011;11073;48.586;12.066;2022-10-16T07:56:39;8.93;;;3.42;;
21820;SDS011;11073;48.586;12.066;2022-10-16T07:59:11;4.18;;;3.08;;
21820;SDS011;11073;48.586;12.066;2022-10-16T08:01:40;7.72;;;3.20;;
21820;SDS011;11073;48.586;12.066;2022-10-16T08:04:10;5.13;;;3.35;;
21820;SDS011;11073;48.586;12.066;2022-10-16T08:06:39;5.32;;;3.63;;
21820;SDS011;11073;48.586;12.066;2022-10-16T08:09:09;6.05;;;3.38;;
21820;SDS011;11073;48.586;12.066;2022-10-16T08:11:38;8.25;;;3.60;;
21820;SDS011;11073;48.586;12.066;2022-10-16T08:14:07;4.32;;;3.55;;
21820;SDS011;11073;48.586;12.066;2022-10-16T08:16:37;4.45;;;3.10;;
21820;SDS011;11073;48.586;12.066;2022-10-16T08:19:06;9.32;;;3.28;;
21820;SDS011;11073;48.586;12.066;2022-10-16T08:21:35;4.13;;;3.33;;
21820;SDS011;11073;48.586;12.066;2022-10-16T08:24:04;6.63;;;3.50;;
21820;SDS011;11073;48.586;12.066;2022-10-16T08:26:33;5.80;;;3.70;;
21820;SDS011;11073;48.586;12.066;2022-10-16T08:29:01;4.30;;;3.10;;
21820;SDS011;11073;48.586;12.066;2022-10-16T08:31:31;4.60;;;3.42;;
21820;SDS011;11073;48.586;12.066;2022-10-16T08:34:01;5.95;;;3.10;;
21820;SDS011;11073;48.586;12.066;2022-10-16T08:36:30;5.43;;;3.45;;
21820;SDS011;11073;48.586;12.066;2022-10-16T08:38:59;5.95;;;3.40;;
21820;SDS011;11073;48.586;12.066;2022-10-16T08:44:39;4.53;;;3.03;;
21820;SDS011;11073;48.586;12.066;2022-10-16T08:47:33;4.53;;;3.42;;
21820;SDS011;11073;48.586;12.066;2022-10-16T08:50:14;5.25;;;3.22;;
21820;SDS011;11073;48.586;12.066;2022-10-16T08:52:50;4.50;;;3.45;;
21820;SDS011;11073;48.586;12.066;2022-10-16T08:55:24;4.15;;;2.97;;
21820;SDS011;11073;48.586;12.066;2022-10-16T08:58:02;5.22;;;2.95;;
21820;SDS011;11073;48.586;12.066;2022-10-16T09:00:40;6.03;;;3.38;;
21820;SDS011;11073;48.586;12.066;2022-10-16T09:03:13;6.18;;;3.00;;
21820;SDS011;11073;48.586;12.066;2022-10-16T09:08:47;3.53;;;3.03;;
21820;SDS011;11073;48.586;12.066;2022-10-16T09:11:26;7.03;;;3.05;;
21820;SDS011;11073;48.586;12.066;2022-10-16T09:14:13;8.48;;;3.33;;
21820;SDS011;11073;48.586;12.066;2022-10-16T09:16:53;5.15;;;3.25;;
21820;SDS011;11073;48.586;12.066;2022-10-16T09:19:29;3.90;;;3.22;;
21820;SDS011;11073;48.586;12.066;2022-10-16T09:22:04;4.18;;;2.97;;
21820;SDS011;11073;48.586;12.066;2022-10-16T09:24:44;7.35;;;3.33;;
21820;SDS011;11073;48.586;12.066;2022-10-16T09:27:13;5.43;;;3.60;;
21820;SDS011;11073;48.586;12.066;2022-10-16T09:29:43;5.03;;;2.78;;
21820;SDS011;11073;48.586;12.066;2022-10-16T09:32:12;4.78;;;4.05;;
21820;SDS011;11073;48.586;12.066;2022-10-16T09:34:45;3.78;;;3.05;;
21820;SDS011;11073;48.586;12.066;2022-10-16T09:37:20;4.03;;;3.40;;
21820;SDS011;11073;48.586;12.066;2022-10-16T09:39:52;4.82;;;3.22;;
21820;SDS011;11073;48.586;12.066;2022-10-16T09:42:22;4.65;;;3.30;;
21820;SDS011;11073;48.586;12.066;2022-10-16T09:44:57;5.45;;;2.75;;
21820;SDS011;11073;48.586;12.066;2022-10-16T09:47:27;3.88;;;3.15;;
21820;SDS011;11073;48.586;12.066;2022-10-16T09:49:59;5.30;;;3.13;;
21820;SDS011;11073;48.586;12.066;2022-10-16T09:52:32;9.25;;;3.78;;
21820;SDS011;11073;48.586;12.066;2022-10-16T09:55:08;6.55;;;3.17;;
21820;SDS011;11073;48.586;12.066;2022-10-16T09:57:48;4.38;;;3.33;;
21820;SDS011;11073;48.586;12.066;2022-10-16T10:00:17;4.32;;;2.97;;
21820;SDS011;11073;48.586;12.066;2022-10-16T10:02:47;3.80;;;2.75;;
21820;SDS011;11073;48.586;12.066;2022-10-16T10:05:20;5.22;;;2.83;;
21820;SDS011;11073;48.586;12.066;2022-10-16T10:07:55;5.75;;;3.15;;
21820;SDS011;11073;48.586;12.066;2022-10-16T10:10:26;3.63;;;2.88;;
21820;SDS011;11073;48.586;12.066;2022-10-16T10:12:56;4.18;;;2.72;;
21820;SDS011;11073;48.586;12.066;2022-10-16T10:15:25;6.22;;;2.88;;
21820;SDS011;11073;48.586;12.066;2022-10-16T10:18:01;3.83;;;2.83;;
21820;SDS011;11073;48.586;12.066;2022-10-16T10:20:31;4.32;;;3.20;;
21820;SDS011;11073;48.586;12.066;2022-10-16T10:23:15;6.60;;;3.00;;
21820;SDS011;11073;48.586;12.066;2022-10-16T10:25:50;3.78;;;3.00;;
21820;SDS011;11073;48.586;12.066;2022-10-16T10:28:38;4.70;;;3.13;;
21820;SDS011;11073;48.586;12.066;2022-10-16T10:31:19;4.25;;;2.78;;
21820;SDS011;11073;48.586;12.066;2022-10-16T10:33:52;4.93;;;2.90;;
21820;SDS011;11073;48.586;12.066;2022-10-16T10:36:30;4.55;;;2.70;;
21820;SDS011;11073;48.586;12.066;2022-10-16T10:39:05;5.78;;;2.60;;
21820;SDS011;11073;48.586;12.066;2022-10-16T10:44:55;4.20;;;2.60;;
21820;SDS011;11073;48.586;12.066;2022-10-16T10:47:38;4.07;;;2.88;;
21820;SDS011;11073;48.586;12.066;2022-10-16T10:50:18;2.85;;;2.50;;
21820;SDS011;11073;48.586;12.066;2022-10-16T10:52:53;3.00;;;2.60;;
21820;SDS011;11073;48.586;12.066;2022-10-16T10:55:33;4.90;;;2.47;;
21820;SDS011;11073;48.586;12.066;2022-10-16T10:58:18;2.85;;;2.60;;
21820;SDS011;11073;48.586;12.066;2022-10-16T11:01:06;3.75;;;2.40;;
21820;SDS011;11073;48.586;12.066;2022-10-16T11:03:42;7.88;;;2.55;;
21820;SDS011;11073;48.586;12.066;2022-10-16T11:06:26;4.68;;;2.45;;
21820;SDS011;11073;48.586;12.066;2022-10-16T11:09:00;4.00;;;2.80;;
21820;SDS011;11073;48.586;12.066;2022-10-16T11:11:40;4.60;;;2.60;;
21820;SDS011;11073;48.586;12.066;2022-10-16T11:14:14;4.60;;;2.13;;
21820;SDS011;11073;48.586;12.066;2022-10-16T11:16:48;7.07;;;2.50;;
21820;SDS011;11073;48.586;12.066;2022-10-16T11:19:25;3.75;;;2.08;;
21820;SDS011;11073;48.586;12.066;2022-10-16T11:22:01;5.47;;;2.17;;
21820;SDS011;11073;48.586;12.066;2022-10-16T11:24:37;3.55;;;2.00;;
21820;SDS011;11073;48.586;12.066;2022-10-16T11:27:14;2.58;;;2.10;;
21820;SDS011;11073;48.586;12.066;2022-10-16T11:29:47;3.65;;;2.10;;
21820;SDS011;11073;48.586;12.066;2022-10-16T11:32:22;3.15;;;2.20;;
21820;SDS011;11073;48.586;12.066;2022-10-16T11:34:55;3.35;;;2.10;;
21820;SDS011;11073;48.586;12.066;2022-10-16T11:37:29;2.38;;;2.17;;
21820;SDS011;11073;48.586;12.066;2022-10-16T11:40:03;2.88;;;2.13;;
21820;SDS011;11073;48.586;12.066;2022-10-16T11:42:46;2.90;;;2.38;;
21820;SDS011;11073;48.586;12.066;2022-10-16T11:45:23;3.70;;;1.90;;
21820;SDS011;11073;48.586;12.066;2022-10-16T11:47:59;4.32;;;2.00;;
21820;SDS011;11073;48.586;12.066;2022-10-16T11:50:35;2.40;;;2.20;;
21820;SDS011;11073;48.586;12.066;2022-10-16T11:53:11;3.25;;;1.92;;
21820;SDS011;11073;48.586;12.066;2022-10-16T11:55:46;4.25;;;1.95;;
21820;SDS011;11073;48.586;12.066;2022-10-16T11:58:20;1.98;;;1.70;;
21820;SDS011;11073;48.586;12.066;2022-10-16T12:00:56;3.38;;;1.80;;
21820;SDS011;11073;48.586;12.066;2022-10-16T12:03:34;2.03;;;1.80;;
21820;SDS011;11073;48.586;12.066;2022-10-16T12:06:14;4.35;;;2.10;;
21820;SDS011;11073;48.586;12.066;2022-10-16T12:08:51;2.00;;;1.80;;
21820;SDS011;11073;48.586;12.066;2022-10-16T12:11:23;3.55;;;1.98;;
21820;SDS011;11073;48.586;12.066;2022-10-16T12:17:35;2.38;;;1.80;;
21820;SDS011;11073;48.586;12.066;2022-10-16T12:20:21;2.33;;;1.98;;
21820;SDS011;11073;48.586;12.066;2022-10-16T12:22:54;3.88;;;1.70;;
21820;SDS011;11073;48.586;12.066;2022-10-16T12:25:27;2.17;;;1.50;;
21820;SDS011;11073;48.586;12.066;2022-10-16T12:28:20;2.83;;;1.70;;
21820;SDS011;11073;48.586;12.066;2022-10-16T12:30:54;2.45;;;1.83;;
21820;SDS011;11073;48.586;12.066;2022-10-16T12:33:26;1.85;;;1.63;;
21820;SDS011;11073;48.586;12.066;2022-10-16T12:35:58;2.65;;;1.40;;
21820;SDS011;11073;48.586;12.066;2022-10-16T12:38:29;1.30;;;1.20;;
21820;SDS011;11073;48.586;12.066;2022-10-16T12:41:06;3.35;;;1.38;;
21820;SDS011;11073;48.586;12.066;2022-10-16T12:43:38;2.95;;;1.58;;
21820;SDS011;11073;48.586;12.066;2022-10-16T12:46:21;1.20;;;1.10;;
21820;SDS011;11073;48.586;12.066;2022-10-16T12:49:04;2.92;;;1.30;;
21820;SDS011;11073;48.586;12.066;2022-10-16T12:51:36;1.10;;;1.00;;
21820;SDS011;11073;48.586;12.066;2022-10-16T12:54:11;1.23;;;1.10;;
21820;SDS011;11073;48.586;12.066;2022-10-16T12:56:47;3.08;;;1.30;;
21820;SDS011;11073;48.586;12.066;2022-10-16T12:59:28;4.00;;;1.10;;
21820;SDS011;11073;48.586;12.066;2022-10-16T13:02:07;1.88;;;1.27;;
21820;SDS011;11073;48.586;12.066;2022-10-16T13:04:54;3.42;;;1.60;;
21820;SDS011;11073;48.586;12.066;2022-10-16T13:07:39;2.78;;;1.13;;
21820;SDS011;11073;48.586;12.066;2022-10-16T13:10:22;4.10;;;1.40;;
21820;SDS011;11073;48.586;12.066;2022-10-16T13:13:02;4.25;;;1.20;;
21820;SDS011;11073;48.586;12.066;2022-10-16T13:15:48;1.70;;;1.33;;
21820;SDS011;11073;48.586;12.066;2022-10-16T13:18:27;2.45;;;1.40;;
21820;SDS011;11073;48.586;12.066;2022-10-16T13:21:09;3.55;;;1.58;;
21820;SDS011;11073;48.586;12.066;2022-10-16T13:23:48;1.65;;;1.15;;
21820;SDS011;11073;48.586;12.066;2022-10-16T13:26:27;1.52;;;1.10;;
21820;SDS011;11073;48.586;12.066;2022-10-16T13:29:04;2.83;;;1.20;;
21820;SDS011;11073;48.586;12.066;2022-10-16T13:31:33;3.80;;;1.27;;
21820;SDS011;11073;48.586;12.066;2022-10-16T13:34:02;2.17;;;1.02;;
21820;SDS011;11073;48.586;12.066;2022-10-16T13:36:35;1.73;;;1.10;;
21820;SDS011;11073;48.586;12.066;2022-10-16T13:39:13;1.60;;;1.33;;
21820;SDS011;11073;48.586;12.066;2022-10-16T13:41:44;3.38;;;1.20;;
21820;SDS011;11073;48.586;12.066;2022-10-16T13:44:14;2.72;;;1.40;;
21820;SDS011;11073;48.586;12.066;2022-10-16T13:46:46;2.00;;;1.17;;
21820;SDS011;11073;48.586;12.066;2022-10-16T13:49:26;5.65;;;1.60;;
21820;SDS011;11073;48.586;12.066;2022-10-16T13:51:57;2.95;;;1.30;;
21820;SDS011;11073;48.586;12.066;2022-10-16T13:54:27;1.48;;;1.25;;
21820;SDS011;11073;48.586;12.066;2022-10-16T13:57:04;1.90;;;1.08;;
21820;SDS011;11073;48.586;12.066;2022-10-16T13:59:53;1.30;;;1.20;;
21820;SDS011;11073;48.586;12.066;2022-10-16T14:02:25;1.20;;;0.98;;
21820;SDS011;11073;48.586;12.066;2022-10-16T14:04:56;3.30;;;1.40;;
21820;SDS011;11073;48.586;12.066;2022-10-16T14:07:29;2.03;;;1.08;;
21820;SDS011;11073;48.586;12.066;2022-10-16T14:10:01;6.38;;;1.33;;
21820;SDS011;11073;48.586;12.066;2022-10-16T14:12:31;1.95;;;1.08;;
21820;SDS011;11073;48.586;12.066;2022-10-16T14:15:01;1.90;;;1.30;;
21820;SDS011;11073;48.586;12.066;2022-10-16T14:17:31;2.03;;;1.10;;
21820;SDS011;11073;48.586;12.066;2022-10-16T14:20:03;1.25;;;1.02;;
21820;SDS011;11073;48.586;12.066;2022-10-16T14:22:36;2.03;;;1.40;;
21820;SDS011;11073;48.586;12.066;2022-10-16T14:25:19;1.10;;;0.90;;
21820;SDS011;11073;48.586;12.066;2022-10-16T14:27:57;2.15;;;1.05;;
21820;SDS011;11073;48.586;12.066;2022-10-16T14:30:33;1.48;;;1.13;;
21820;SDS011;11073;48.586;12.066;2022-10-16T14:33:04;1.23;;;0.93;;
21820;SDS011;11073;48.586;12.066;2022-10-16T14:35:35;3.72;;;1.10;;
21820;SDS011;11073;48.586;12.066;2022-10-16T14:38:15;2.42;;;1.10;;
21820;SDS011;11073;48.586;12.066;2022-10-16T14:40:48;3.25;;;1.45;;
21820;SDS011;11073;48.586;12.066;2022-10-16T14:43:20;3.72;;;1.02;;
21820;SDS011;11073;48.586;12.066;2022-10-16T14:45:50;3.80;;;1.30;;
21820;SDS011;11073;48.586;12.066;2022-10-16T14:48:21;3.05;;;1.30;;
21820;SDS011;11073;48.586;12.066;2022-10-16T14:50:50;2.30;;;1.10;;
21820;SDS011;11073;48.586;12.066;2022-10-16T14:53:20;2.97;;;1.10;;
21820;SDS011;11073;48.586;12.066;2022-10-16T14:55:48;1.77;;;0.90;;
21820;SDS011;11073;48.586;12.066;2022-10-16T14:58:19;2.88;;;1.10;;
21820;SDS011;11073;48.586;12.066;2022-10-16T15:00:50;2.38;;;0.90;;
21820;SDS011;11073;48.586;12.066;2022-10-16T15:03:18;1.38;;;0.98;;
21820;SDS011;11073;48.586;12.066;2022-10-16T15:05:47;4.10;;;1.15;;
21820;SDS011;11073;48.586;12.066;2022-10-16T15:08:16;6.65;;;1.00;;
21820;SDS011;11073;48.586;12.066;2022-10-16T15:10:46;1.85;;;1.20;;
21820;SDS011;11073;48.586;12.066;2022-10-16T15:13:15;6.22;;;1.20;;
21820;SDS011;11073;48.586;12.066;2022-10-16T15:15:44;4.05;;;1.52;;
21820;SDS011;11073;48.586;12.066;2022-10-16T15:18:13;5.20;;;1.40;;